Latest Coastal Weather Observations for Derby

IDW60701

Issued at 12:15 pm WST Monday 28 July 2014 (issued every 10 minutes, with the page automatically refreshed every 10 minutes)

About coastal observations | Map of coastal stations | Coastal observations for WA | Marine services | Other Formats
Station Details ID: 003032 Name: DERBY AERO Lat: -17.37 Lon: 123.66 Height: 6.2 m
Data from the previous 72 hours. | See also: Recent months at Derby
Date/Time
WST
Temp

°C
Wind Pressure Rain
since 9am
mm
Weather Cloud Vis
km
Sea
Height
m
Swell
Dir
 
Speed
knots
Gust
knots
hPa Trend Height
m
Period
s
Dir
28/12:00pm 32.4 N 4 9 1015.6 - 0.0 - - - - - - -
28/11:30am 30.7 NW 5 7 1016.1 - 0.0 - - - - - - -
28/11:00am 29.6 W 2 5 1016.7 - 0.0 - - - - - - -
28/10:30am 27.8 NNE 7 8 1017.3 - 0.0 - - - - - - -
28/10:00am 28.1 NNE 6 9 1017.4 - 0.0 - - - - - - -
28/09:30am 27.5 ENE 5 7 1017.6 - 0.0 - - - - - - -
28/09:00am 25.1 E 6 8 1017.5 - 0.0 - - - - - - -
28/08:30am 22.8 ESE 5 7 1017.3 - 0.0 - - - - - - -
28/08:00am 22.1 ENE 3 5 1017.3 - 0.0 - - - - - - -
28/07:30am 21.1 NE 4 5 1017.0 - 0.0 - - - - - - -
28/07:00am 19.7 NNE 3 4 1016.8 - 0.0 - - - - - - -
28/06:30am 18.4 NNE 1 4 1016.6 - 0.0 - - - - - - -
28/06:00am 18.7 SSE 1 3 1016.0 - 0.0 - - - - - - -
28/05:30am 19.6 ESE 3 4 1015.8 - 0.0 - - - - - - -
28/05:00am 19.7 S 5 6 1015.5 - 0.0 - - - - - - -
28/04:30am 19.8 S 7 9 1015.4 - 0.0 - - - - - - -
28/04:00am 19.6 S 5 6 1015.2 - 0.0 - - - - - - -
28/03:30am 19.3 SSE 6 8 1015.2 - 0.0 - - - - - - -
28/03:00am 19.3 S 7 8 1015.0 - 0.0 - - - - - - -
28/02:30am 20.0 S 6 7 1015.3 - 0.0 - - - - - - -
28/02:00am 20.5 S 5 6 1015.5 - 0.0 - - - - - - -
28/01:30am 20.5 S 5 6 1015.8 - 0.0 - - - - - - -
28/01:00am 20.7 S 4 5 1016.1 - 0.0 - - - - - - -
28/12:30am 21.0 S 5 7 1016.4 - 0.0 - - - - - - -
28/12:00am 20.4 WNW 3 3 1016.6 - 0.0 - - - - - - -
 
Date/Time
WST
Temp

°C
Wind Pressure Rain
since 9am
mm
Weather Cloud Vis
km
Sea
Height
m
Swell
Dir
 
Speed
knots
Gust
knots
hPa Trend Height
m
Period
s
Dir
27/11:30pm 20.8 SSW 5 5 1016.8 - 0.0 - - - - - - -
27/11:00pm 20.3 SSW 3 5 1017.0 - 0.0 - - - - - - -
27/10:30pm 20.6 S 1 3 1016.8 - 0.0 - - - - - - -
27/10:00pm 20.5 SSW 4 5 1016.5 - 0.0 - - - - - - -
27/09:30pm 22.0 S 5 6 1016.3 - 0.0 - - - - - - -
27/09:00pm 22.4 SSE 5 7 1016.2 - 0.0 - - - - - - -
27/08:30pm 22.8 SSE 8 10 1016.2 - 0.0 - - - - - - -
27/08:00pm 22.6 SSW 5 7 1016.2 - 0.0 - - - - - - -
27/07:30pm 23.2 W 4 5 1016.0 - 0.0 - - - - - - -
27/07:00pm 23.8 W 5 8 1015.8 - 0.0 - - - - - - -
27/06:30pm 24.2 WNW 5 5 1015.5 - 0.0 - - - - - - -
27/06:00pm 25.0 NNW 5 6 1015.3 - 0.0 - - - - - - -
27/05:30pm 26.1 W 7 8 1015.0 - 0.0 - - - - - - -
27/05:00pm 29.2 WNW 7 9 1014.9 - 0.0 - - - - - - -
27/04:30pm 30.4 WNW 9 12 1014.8 - 0.0 - - - - - - -
27/04:00pm 30.9 WNW 11 13 1014.7 - 0.0 - - - - - - -
27/03:30pm 31.4 WNW 11 14 1014.6 - 0.0 - - - - - - -
27/03:00pm 31.0 WNW 13 16 1014.6 - 0.0 - - - - - - -
27/02:30pm 31.2 WNW 12 15 1014.5 - 0.0 - - - - - - -
27/02:00pm 31.4 WNW 12 15 1014.7 - 0.0 - - - - - - -
27/01:30pm 32.4 WNW 12 16 1014.8 - 0.0 - - - - - - -
27/01:00pm 32.6 WNW 9 13 1015.3 - 0.0 - - - - - - -
27/12:30pm 31.7 NNW 7 13 1015.9 - 0.0 - - - - - - -
27/12:00pm 32.7 NE 9 18 1016.2 - 0.0 - - - - - - -
27/11:30am 31.9 N 5 9 1016.9 - 0.0 - - - - - - -
27/11:00am 31.8 E 5 7 1017.4 - 0.0 - - - - - - -
27/10:30am 31.2 NE 6 10 1018.0 - 0.0 - - - - - - -
27/10:00am 29.8 ENE 7 10 1018.5 - 0.0 - - - - - - -
27/09:30am 28.8 E 6 9 1018.7 - 0.0 - - - - - - -
27/09:00am 25.3 CALM 0 0 1018.9 - 0.0 - - - - - - -
27/08:30am 21.7 SW 1 4 1018.7 - 0.0 - - - - - - -
27/08:00am 20.3 CALM 0 0 1018.6 - 0.0 - - - - - - -
27/07:30am 17.8 SE 1 3 1018.3 - 0.0 - - - - - - -
27/07:00am 16.1 SSE 5 6 1017.9 - 0.0 - - - - - - -
27/06:30am 15.2 SSE 6 8 1017.6 - 0.0 - - - - - - -
27/06:00am 14.4 SE 4 5 1017.7 - 0.0 - - - - - - -
27/05:30am 14.6 SSE 7 8 1017.5 - 0.0 - - - - - - -
27/05:00am 14.6 SSE 6 7 1017.3 - 0.0 - - - - - - -
27/04:30am 14.7 SSE 6 7 1017.1 - 0.0 - - - - - - -
27/04:00am 15.2 SSE 4 5 1017.1 - 0.0 - - - - - - -
27/03:30am 14.8 S 6 7 1017.1 - 0.0 - - - - - - -
27/03:00am 15.8 S 4 6 1017.3 - 0.0 - - - - - - -
27/02:30am 14.3 SE 4 6 1017.2 - 0.0 - - - - - - -
27/02:00am 16.5 SSW 4 5 1017.1 - 0.0 - - - - - - -
27/01:30am 17.2 S 4 5 1017.4 - 0.0 - - - - - - -
27/01:00am 17.9 SSE 5 7 1017.5 - 0.0 - - - - - - -
27/12:30am 18.8 S 5 6 1017.8 - 0.0 - - - - - - -
27/12:00am 18.4 S 5 7 1017.6 - 0.0 - - - - - - -
 
Date/Time
WST
Temp

°C
Wind Pressure Rain
since 9am
mm
Weather Cloud Vis
km
Sea
Height
m
Swell
Dir
 
Speed
knots
Gust
knots
hPa Trend Height
m
Period
s
Dir
26/11:30pm 18.2 SSW 5 6 1017.7 - 0.0 - - - - - - -
26/11:00pm 18.2 SSW 7 8 1017.8 - 0.0 - - - - - - -
26/10:30pm 17.8 SSE 1 3 1018.0 - 0.0 - - - - - - -
26/10:00pm 18.2 S 3 4 1018.0 - 0.0 - - - - - - -
26/09:30pm 18.6 SSE 5 6 1017.9 - 0.0 - - - - - - -
26/09:00pm 20.4 ESE 4 4 1017.9 - 0.0 - - - - - - -
26/08:30pm 20.2 SE 5 6 1017.7 - 0.0 - - - - - - -
26/08:00pm 20.4 S 4 5 1017.7 - 0.0 - - - - - - -
26/07:30pm 21.6 CALM 0 3 1017.5 - 0.0 - - - - - - -
26/07:00pm 23.1 NNW 3 5 1017.4 - 0.0 - - - - - - -
26/06:30pm 23.0 NNW 6 7 1017.1 - 0.0 - - - - - - -
26/06:00pm 23.6 NW 6 7 1016.8 - 0.0 - - - - - - -
26/05:30pm 25.2 WNW 7 9 1016.5 - 0.0 - - - - - - -
26/05:00pm 27.2 WNW 10 13 1016.2 - 0.0 - - - - - - -
26/04:30pm 28.4 WNW 12 15 1016.0 - 0.0 - - - - - - -
26/04:00pm 29.1 WNW 13 17 1015.9 - 0.0 - - - - - - -
26/03:30pm 29.4 WNW 13 16 1015.8 - 0.0 - - - - - - -
26/03:00pm 29.6 WNW 13 16 1015.8 - 0.0 - - - - - - -
26/02:30pm 30.6 NW 14 16 1015.9 - 0.0 - - - - - - -
26/02:00pm 30.9 NW 14 18 1015.9 - 0.0 - - - - - - -
26/01:30pm 31.9 NW 10 14 1016.2 - 0.0 - - - - - - -
26/01:00pm 31.8 NNE 7 13 1016.5 - 0.0 - - - - - - -
26/12:30pm 30.9 N 6 11 1016.9 - 0.0 - - - - - - -
26/12:00pm 30.7 NNE 8 12 1017.4 - 0.0 - - - - - - -
26/11:30am 29.5 NE 9 13 1017.9 - 0.0 - - - - - - -
26/11:00am 29.6 NE 7 10 1018.3 - 0.0 - - - - - - -
26/10:30am 28.5 E 8 11 1018.8 - 0.0 - - - - - - -
26/10:00am 27.0 ESE 10 13 1019.2 - 0.0 - - - - - - -
26/09:30am 25.7 ESE 11 15 1019.3 - 0.0 - - - - - - -
26/09:00am 24.8 SE 8 11 1019.4 - 0.0 - - - - - - -
26/08:30am 22.2 SSE 7 10 1019.4 - 0.0 - - - - - - -
26/08:00am 20.5 S 7 10 1019.1 - 0.0 - - - - - - -
26/07:30am 18.9 S 6 7 1018.9 - 0.0 - - - - - - -
26/07:00am 15.7 S 6 7 1018.4 - 0.0 - - - - - - -
26/06:30am 14.1 S 7 8 1018.0 - 0.0 - - - - - - -
26/06:00am 14.6 S 6 8 1017.7 - 0.0 - - - - - - -
26/05:30am 14.2 S 8 9 1017.4 - 0.0 - - - - - - -
26/05:00am 14.0 S 9 10 1017.3 - 0.0 - - - - - - -
26/04:30am 14.0 S 7 9 1017.4 - 0.0 - - - - - - -
26/04:00am 14.1 S 5 8 1017.4 - 0.0 - - - - - - -
26/03:30am 14.1 S 4 6 1017.4 - 0.0 - - - - - - -
26/03:00am 14.1 S 6 7 1017.3 - 0.0 - - - - - - -
26/02:30am 13.9 SSW 3 5 1017.4 - 0.0 - - - - - - -
26/02:00am 14.6 S 4 5 1017.2 - 0.0 - - - - - - -
26/01:30am 14.7 S 5 6 1017.1 - 0.0 - - - - - - -
26/01:00am 15.0 SSW 3 4 1017.4 - 0.0 - - - - - - -
26/12:30am 15.6 S 6 7 1017.4 - 0.0 - - - - - - -
26/12:00am 15.7 S 6 6 1017.5 - 0.0 - - - - - - -
 
Date/Time
WST
Temp

°C
Wind Pressure Rain
since 9am
mm
Weather Cloud Vis
km
Sea
Height
m
Swell
Dir
 
Speed
knots
Gust
knots
hPa Trend Height
m
Period
s
Dir
25/11:30pm 16.7 S 6 7 1017.5 - 0.0 - - - - - - -
25/11:00pm 17.0 S 4 5 1017.8 - 0.0 - - - - - - -
25/10:30pm 17.3 S 5 5 1017.7 - 0.0 - - - - - - -
25/10:00pm 18.8 SSE 6 7 1017.7 - 0.0 - - - - - - -
25/09:30pm 18.9 SSE 5 6 1017.9 - 0.0 - - - - - - -
25/09:00pm 20.0 SSE 7 8 1017.8 - 0.0 - - - - - - -
25/08:30pm 20.1 SSE 7 8 1017.6 - 0.0 - - - - - - -
25/08:00pm 20.5 S 7 8 1017.4 - 0.0 - - - - - - -
25/07:30pm 21.4 S 6 7 1017.2 - 0.0 - - - - - - -
25/07:00pm 21.7 S 7 8 1016.8 - 0.0 - - - - - - -
25/06:30pm 22.9 S 7 9 1016.6 - 0.0 - - - - - - -
25/06:00pm 25.3 SE 7 10 1016.3 - 0.0 - - - - - - -
25/05:30pm 26.4 SE 8 9 1016.0 - 0.0 - - - - - - -
25/05:00pm 28.0 SSE 7 10 1015.7 - 0.0 - - - - - - -
25/04:30pm 29.0 SSE 7 10 1015.5 - 0.0 - - - - - - -
25/04:00pm 29.2 SSE 8 11 1015.4 - 0.0 - - - - - - -
25/03:30pm 29.5 SSE 8 11 1015.2 - 0.0 - - - - - - -
25/03:00pm 29.5 SSE 7 10 1015.3 - 0.0 - - - - - - -
25/02:30pm 29.1 SE 9 13 1015.4 - 0.0 - - - - - - -
25/02:00pm 29.5 SE 8 13 1015.6 - 0.0 - - - - - - -
25/01:30pm 29.4 SSE 9 14 1016.0 - 0.0 - - - - - - -
25/01:00pm 29.6 SSE 10 16 1016.2 - 0.0 - - - - - - -
25/12:30pm 28.7 SE 10 14 1016.6 - 0.0 - - - - - - -

Other Formats:

Comma delimited format used in spreadsheet applications
http://www.bom.gov.au/fwo/IDW60701/IDW60701.95205.axf

JavaScript Object Notation format (JSON) in row-major order
http://www.bom.gov.au/fwo/IDW60701/IDW60701.95205.json